<?xml version='1.0' encoding='UTF-8'?>
<gpx version="1.1" creator="https://www.komoot.de" xmlns="http://www.topografix.com/GPX/1/1" xmlns:xsi="http://www.w3.org/2001/XMLSchema-instance" xsi:schemaLocation="http://www.topografix.com/GPX/1/1 http://www.topografix.com/GPX/1/1/gpx.xsd">
  <metadata>
    <name>Lions Fietstocht 2026 familie 30 km _ definitief</name>
    <author>
      <link href="https://www.komoot.de">
        <text>komoot</text>
        <type>text/html</type>
      </link>
    </author>
  </metadata>
  <trk>
    <name>Lions Fietstocht 2026 familie 30 km _ definitief</name>
    <type>touring_bicycle</type>
    <trkseg>
      <trkpt lat="52.225190" lon="6.101529">
        <ele>4.640488</ele>
        <time>2026-08-02T20:05:28.627Z</time>
      </trkpt>
      <trkpt lat="52.225172" lon="6.101623">
        <ele>4.640488</ele>
        <time>2026-08-02T20:05:30.422Z</time>
      </trkpt>
      <trkpt lat="52.224918" lon="6.102930">
        <ele>4.640654</ele>
        <time>2026-08-02T20:05:55.354Z</time>
      </trkpt>
      <trkpt lat="52.225047" lon="6.102979">
        <ele>4.663865</ele>
        <time>2026-08-02T20:05:59.305Z</time>
      </trkpt>
      <trkpt lat="52.225359" lon="6.103140">
        <ele>4.721210</ele>
        <time>2026-08-02T20:06:09.108Z</time>
      </trkpt>
      <trkpt lat="52.225524" lon="6.103225">
        <ele>4.751532</ele>
        <time>2026-08-02T20:06:14.325Z</time>
      </trkpt>
      <trkpt lat="52.225671" lon="6.103301">
        <ele>4.778555</ele>
        <time>2026-08-02T20:06:18.974Z</time>
      </trkpt>
      <trkpt lat="52.225916" lon="6.103428">
        <ele>4.823604</ele>
        <time>2026-08-02T20:06:26.773Z</time>
      </trkpt>
      <trkpt lat="52.225951" lon="6.103446">
        <ele>4.830035</ele>
        <time>2026-08-02T20:06:27.857Z</time>
      </trkpt>
      <trkpt lat="52.225954" lon="6.103509">
        <ele>4.836819</ele>
        <time>2026-08-02T20:06:28.769Z</time>
      </trkpt>
      <trkpt lat="52.226140" lon="6.103980">
        <ele>4.896977</ele>
        <time>2026-08-02T20:06:36.606Z</time>
      </trkpt>
      <trkpt lat="52.226169" lon="6.104002">
        <ele>4.902581</ele>
        <time>2026-08-02T20:06:37.344Z</time>
      </trkpt>
      <trkpt lat="52.226191" lon="6.103999">
        <ele>4.906450</ele>
        <time>2026-08-02T20:06:37.850Z</time>
      </trkpt>
      <trkpt lat="52.226258" lon="6.103990">
        <ele>4.918232</ele>
        <time>2026-08-02T20:06:39.453Z</time>
      </trkpt>
      <trkpt lat="52.226276" lon="6.103986">
        <ele>4.921415</ele>
        <time>2026-08-02T20:06:39.893Z</time>
      </trkpt>
      <trkpt lat="52.226337" lon="6.103849">
        <ele>4.939597</ele>
        <time>2026-08-02T20:06:42.236Z</time>
      </trkpt>
      <trkpt lat="52.226408" lon="6.103690">
        <ele>4.955814</ele>
        <time>2026-08-02T20:06:44.970Z</time>
      </trkpt>
      <trkpt lat="52.226714" lon="6.103650">
        <ele>4.957015</ele>
        <time>2026-08-02T20:06:51.889Z</time>
      </trkpt>
      <trkpt lat="52.226800" lon="6.103631">
        <ele>4.957354</ele>
        <time>2026-08-02T20:06:53.821Z</time>
      </trkpt>
      <trkpt lat="52.226879" lon="6.103500">
        <ele>4.957794</ele>
        <time>2026-08-02T20:06:56.319Z</time>
      </trkpt>
      <trkpt lat="52.226928" lon="6.103494">
        <ele>4.957987</ele>
        <time>2026-08-02T20:06:57.407Z</time>
      </trkpt>
      <trkpt lat="52.226925" lon="6.103405">
        <ele>4.958200</ele>
        <time>2026-08-02T20:06:58.613Z</time>
      </trkpt>
      <trkpt lat="52.226836" lon="6.103009">
        <ele>4.959211</ele>
        <time>2026-08-02T20:07:04.292Z</time>
      </trkpt>
      <trkpt lat="52.226832" lon="6.102908">
        <ele>4.959453</ele>
        <time>2026-08-02T20:07:05.643Z</time>
      </trkpt>
      <trkpt lat="52.226783" lon="6.101630">
        <ele>4.962521</ele>
        <time>2026-08-02T20:07:22.794Z</time>
      </trkpt>
      <trkpt lat="52.226641" lon="6.098340">
        <ele>5.169943</ele>
        <time>2026-08-02T20:08:08.887Z</time>
      </trkpt>
      <trkpt lat="52.226650" lon="6.098188">
        <ele>5.177160</ele>
        <time>2026-08-02T20:08:11.022Z</time>
      </trkpt>
      <trkpt lat="52.226692" lon="6.098009">
        <ele>5.186219</ele>
        <time>2026-08-02T20:08:13.688Z</time>
      </trkpt>
      <trkpt lat="52.226710" lon="6.097928">
        <ele>5.190291</ele>
        <time>2026-08-02T20:08:14.900Z</time>
      </trkpt>
      <trkpt lat="52.226738" lon="6.097797">
        <ele>5.196848</ele>
        <time>2026-08-02T20:08:16.830Z</time>
      </trkpt>
      <trkpt lat="52.226731" lon="6.097592">
        <ele>5.206551</ele>
        <time>2026-08-02T20:08:19.706Z</time>
      </trkpt>
      <trkpt lat="52.226846" lon="6.096856">
        <ele>5.242447</ele>
        <time>2026-08-02T20:08:30.239Z</time>
      </trkpt>
      <trkpt lat="52.226808" lon="6.096781">
        <ele>5.247047</ele>
        <time>2026-08-02T20:08:31.574Z</time>
      </trkpt>
      <trkpt lat="52.226719" lon="6.096748">
        <ele>5.254088</ele>
        <time>2026-08-02T20:08:33.633Z</time>
      </trkpt>
      <trkpt lat="52.226626" lon="6.096705">
        <ele>5.261546</ele>
        <time>2026-08-02T20:08:35.807Z</time>
      </trkpt>
      <trkpt lat="52.226571" lon="6.096576">
        <ele>5.268973</ele>
        <time>2026-08-02T20:08:37.959Z</time>
      </trkpt>
      <trkpt lat="52.226618" lon="6.094922">
        <ele>5.266113</ele>
        <time>2026-08-02T20:09:00.465Z</time>
      </trkpt>
      <trkpt lat="52.226670" lon="6.093346">
        <ele>5.222886</ele>
        <time>2026-08-02T20:09:21.609Z</time>
      </trkpt>
      <trkpt lat="52.226689" lon="6.093123">
        <ele>5.216720</ele>
        <time>2026-08-02T20:09:24.631Z</time>
      </trkpt>
      <trkpt lat="52.226780" lon="6.092604">
        <ele>5.212571</ele>
        <time>2026-08-02T20:09:31.886Z</time>
      </trkpt>
      <trkpt lat="52.226861" lon="6.092211">
        <ele>5.210152</ele>
        <time>2026-08-02T20:09:37.486Z</time>
      </trkpt>
      <trkpt lat="52.226905" lon="6.092010">
        <ele>5.208906</ele>
        <time>2026-08-02T20:09:40.386Z</time>
      </trkpt>
      <trkpt lat="52.227002" lon="6.091932">
        <ele>5.207876</ele>
        <time>2026-08-02T20:09:42.784Z</time>
      </trkpt>
      <trkpt lat="52.226996" lon="6.091818">
        <ele>5.207209</ele>
        <time>2026-08-02T20:09:44.324Z</time>
      </trkpt>
      <trkpt lat="52.227024" lon="6.091709">
        <ele>5.206519</ele>
        <time>2026-08-02T20:09:45.956Z</time>
      </trkpt>
      <trkpt lat="52.227050" lon="6.091625">
        <ele>5.205970</ele>
        <time>2026-08-02T20:09:47.246Z</time>
      </trkpt>
      <trkpt lat="52.227084" lon="6.091515">
        <ele>5.205251</ele>
        <time>2026-08-02T20:09:48.964Z</time>
      </trkpt>
      <trkpt lat="52.227187" lon="6.091052">
        <ele>5.202377</ele>
        <time>2026-08-02T20:09:55.830Z</time>
      </trkpt>
      <trkpt lat="52.227308" lon="6.090106">
        <ele>5.177903</ele>
        <time>2026-08-02T20:10:09.106Z</time>
      </trkpt>
      <trkpt lat="52.227302" lon="6.090018">
        <ele>5.171224</ele>
        <time>2026-08-02T20:10:10.291Z</time>
      </trkpt>
      <trkpt lat="52.227227" lon="6.089853">
        <ele>5.155727</ele>
        <time>2026-08-02T20:10:13.041Z</time>
      </trkpt>
      <trkpt lat="52.227241" lon="6.089670">
        <ele>5.141817</ele>
        <time>2026-08-02T20:10:15.511Z</time>
      </trkpt>
      <trkpt lat="52.227294" lon="6.089497">
        <ele>5.127228</ele>
        <time>2026-08-02T20:10:18.088Z</time>
      </trkpt>
      <trkpt lat="52.227362" lon="6.089273">
        <ele>5.108372</ele>
        <time>2026-08-02T20:10:21.427Z</time>
      </trkpt>
      <trkpt lat="52.227880" lon="6.087988">
        <ele>4.992347</ele>
        <time>2026-08-02T20:10:41.802Z</time>
      </trkpt>
      <trkpt lat="52.228089" lon="6.087462">
        <ele>4.944596</ele>
        <time>2026-08-02T20:10:50.025Z</time>
      </trkpt>
      <trkpt lat="52.228599" lon="6.086168">
        <ele>4.826851</ele>
        <time>2026-08-02T20:11:10.624Z</time>
      </trkpt>
      <trkpt lat="52.228460" lon="6.086023">
        <ele>4.806244</ele>
        <time>2026-08-02T20:11:14.244Z</time>
      </trkpt>
      <trkpt lat="52.225985" lon="6.083464">
        <ele>4.553745</ele>
        <time>2026-08-02T20:12:18.019Z</time>
      </trkpt>
      <trkpt lat="52.225865" lon="6.083400">
        <ele>4.550331</ele>
        <time>2026-08-02T20:12:20.809Z</time>
      </trkpt>
      <trkpt lat="52.225579" lon="6.083335">
        <ele>4.542521</ele>
        <time>2026-08-02T20:12:27.234Z</time>
      </trkpt>
      <trkpt lat="52.224555" lon="6.083153">
        <ele>4.591786</ele>
        <time>2026-08-02T20:12:50.302Z</time>
      </trkpt>
      <trkpt lat="52.224572" lon="6.082898">
        <ele>4.622734</ele>
        <time>2026-08-02T20:12:53.937Z</time>
      </trkpt>
      <trkpt lat="52.224516" lon="6.082844">
        <ele>4.635545</ele>
        <time>2026-08-02T20:12:55.439Z</time>
      </trkpt>
      <trkpt lat="52.224415" lon="6.082826">
        <ele>4.655556</ele>
        <time>2026-08-02T20:12:59.283Z</time>
      </trkpt>
      <trkpt lat="52.221587" lon="6.082329">
        <ele>5.226418</ele>
        <time>2026-08-02T20:14:05.512Z</time>
      </trkpt>
      <trkpt lat="52.221510" lon="6.082365">
        <ele>5.242691</ele>
        <time>2026-08-02T20:14:07.306Z</time>
      </trkpt>
      <trkpt lat="52.221188" lon="6.082790">
        <ele>5.205689</ele>
        <time>2026-08-02T20:14:16.420Z</time>
      </trkpt>
      <trkpt lat="52.221145" lon="6.082800">
        <ele>5.201659</ele>
        <time>2026-08-02T20:14:17.383Z</time>
      </trkpt>
      <trkpt lat="52.221256" lon="6.081158">
        <ele>5.107763</ele>
        <time>2026-08-02T20:14:39.264Z</time>
      </trkpt>
      <trkpt lat="52.221323" lon="6.080124">
        <ele>5.089354</ele>
        <time>2026-08-02T20:14:53.051Z</time>
      </trkpt>
      <trkpt lat="52.221567" lon="6.076947">
        <ele>5.169672</ele>
        <time>2026-08-02T20:15:37.259Z</time>
      </trkpt>
      <trkpt lat="52.221707" lon="6.074937">
        <ele>5.218324</ele>
        <time>2026-08-02T20:16:05.276Z</time>
      </trkpt>
      <trkpt lat="52.221725" lon="6.074155">
        <ele>5.139052</ele>
        <time>2026-08-02T20:16:15.682Z</time>
      </trkpt>
      <trkpt lat="52.221880" lon="6.071395">
        <ele>4.861236</ele>
        <time>2026-08-02T20:16:51.668Z</time>
      </trkpt>
      <trkpt lat="52.222156" lon="6.067272">
        <ele>5.056444</ele>
        <time>2026-08-02T20:17:50.016Z</time>
      </trkpt>
      <trkpt lat="52.226066" lon="6.067952">
        <ele>4.804555</ele>
        <time>2026-08-02T20:19:15.551Z</time>
      </trkpt>
      <trkpt lat="52.226221" lon="6.067892">
        <ele>4.796526</ele>
        <time>2026-08-02T20:19:19.137Z</time>
      </trkpt>
      <trkpt lat="52.226287" lon="6.067732">
        <ele>4.790571</ele>
        <time>2026-08-02T20:19:21.798Z</time>
      </trkpt>
      <trkpt lat="52.226329" lon="6.067386">
        <ele>4.800955</ele>
        <time>2026-08-02T20:19:26.722Z</time>
      </trkpt>
      <trkpt lat="52.226696" lon="6.062269">
        <ele>5.722141</ele>
        <time>2026-08-02T20:20:41.361Z</time>
      </trkpt>
      <trkpt lat="52.226815" lon="6.060610">
        <ele>5.619848</ele>
        <time>2026-08-02T20:21:03.735Z</time>
      </trkpt>
      <trkpt lat="52.226888" lon="6.059598">
        <ele>5.424288</ele>
        <time>2026-08-02T20:21:16.733Z</time>
      </trkpt>
      <trkpt lat="52.226934" lon="6.059355">
        <ele>5.375476</ele>
        <time>2026-08-02T20:21:19.944Z</time>
      </trkpt>
      <trkpt lat="52.227012" lon="6.059160">
        <ele>5.330780</ele>
        <time>2026-08-02T20:21:22.863Z</time>
      </trkpt>
      <trkpt lat="52.227473" lon="6.058265">
        <ele>5.107830</ele>
        <time>2026-08-02T20:21:37.549Z</time>
      </trkpt>
      <trkpt lat="52.227930" lon="6.057240">
        <ele>4.866912</ele>
        <time>2026-08-02T20:21:54.170Z</time>
      </trkpt>
      <trkpt lat="52.228718" lon="6.055027">
        <ele>4.648569</ele>
        <time>2026-08-02T20:22:27.916Z</time>
      </trkpt>
      <trkpt lat="52.228832" lon="6.054524">
        <ele>4.632589</ele>
        <time>2026-08-02T20:22:35.273Z</time>
      </trkpt>
      <trkpt lat="52.228878" lon="6.054200">
        <ele>4.622679</ele>
        <time>2026-08-02T20:22:39.878Z</time>
      </trkpt>
      <trkpt lat="52.228988" lon="6.052640">
        <ele>4.707866</ele>
        <time>2026-08-02T20:23:02.141Z</time>
      </trkpt>
      <trkpt lat="52.229039" lon="6.052321">
        <ele>4.735047</ele>
        <time>2026-08-02T20:23:06.829Z</time>
      </trkpt>
      <trkpt lat="52.229227" lon="6.051635">
        <ele>4.797007</ele>
        <time>2026-08-02T20:23:17.325Z</time>
      </trkpt>
      <trkpt lat="52.229280" lon="6.050990">
        <ele>4.850660</ele>
        <time>2026-08-02T20:23:26.182Z</time>
      </trkpt>
      <trkpt lat="52.229442" lon="6.049948">
        <ele>4.786047</ele>
        <time>2026-08-02T20:23:40.631Z</time>
      </trkpt>
      <trkpt lat="52.229494" lon="6.049834">
        <ele>4.776948</ele>
        <time>2026-08-02T20:23:42.504Z</time>
      </trkpt>
      <trkpt lat="52.229573" lon="6.049742">
        <ele>4.766807</ele>
        <time>2026-08-02T20:23:44.599Z</time>
      </trkpt>
      <trkpt lat="52.230666" lon="6.048586">
        <ele>4.701695</ele>
        <time>2026-08-02T20:24:12.881Z</time>
      </trkpt>
      <trkpt lat="52.230846" lon="6.048395">
        <ele>4.725634</ele>
        <time>2026-08-02T20:24:17.697Z</time>
      </trkpt>
      <trkpt lat="52.230991" lon="6.048251">
        <ele>4.744559</ele>
        <time>2026-08-02T20:24:21.530Z</time>
      </trkpt>
      <trkpt lat="52.231055" lon="6.048185">
        <ele>4.753000</ele>
        <time>2026-08-02T20:24:23.259Z</time>
      </trkpt>
      <trkpt lat="52.231482" lon="6.047747">
        <ele>4.809233</ele>
        <time>2026-08-02T20:24:34.800Z</time>
      </trkpt>
      <trkpt lat="52.232534" lon="6.046664">
        <ele>4.859026</ele>
        <time>2026-08-02T20:25:03.957Z</time>
      </trkpt>
      <trkpt lat="52.232784" lon="6.046295">
        <ele>4.856016</ele>
        <time>2026-08-02T20:25:11.468Z</time>
      </trkpt>
      <trkpt lat="52.233007" lon="6.045866">
        <ele>4.852937</ele>
        <time>2026-08-02T20:25:18.876Z</time>
      </trkpt>
      <trkpt lat="52.233046" lon="6.045803">
        <ele>4.852447</ele>
        <time>2026-08-02T20:25:20.032Z</time>
      </trkpt>
      <trkpt lat="52.233086" lon="6.045739">
        <ele>4.851947</ele>
        <time>2026-08-02T20:25:21.213Z</time>
      </trkpt>
      <trkpt lat="52.233049" lon="6.045667">
        <ele>4.851433</ele>
        <time>2026-08-02T20:25:22.420Z</time>
      </trkpt>
      <trkpt lat="52.233023" lon="6.045612">
        <ele>4.851053</ele>
        <time>2026-08-02T20:25:23.318Z</time>
      </trkpt>
      <trkpt lat="52.232946" lon="6.045441">
        <ele>4.849891</ele>
        <time>2026-08-02T20:25:26.031Z</time>
      </trkpt>
      <trkpt lat="52.232905" lon="6.045351">
        <ele>4.836021</ele>
        <time>2026-08-02T20:25:27.465Z</time>
      </trkpt>
      <trkpt lat="52.232956" lon="6.045244">
        <ele>4.799373</ele>
        <time>2026-08-02T20:25:29.177Z</time>
      </trkpt>
      <trkpt lat="52.232958" lon="6.045129">
        <ele>4.768277</ele>
        <time>2026-08-02T20:25:30.644Z</time>
      </trkpt>
      <trkpt lat="52.233043" lon="6.044763">
        <ele>4.662475</ele>
        <time>2026-08-02T20:25:35.523Z</time>
      </trkpt>
      <trkpt lat="52.233196" lon="6.044306">
        <ele>4.521699</ele>
        <time>2026-08-02T20:25:41.993Z</time>
      </trkpt>
      <trkpt lat="52.233407" lon="6.043891">
        <ele>4.375912</ele>
        <time>2026-08-02T20:25:48.689Z</time>
      </trkpt>
      <trkpt lat="52.233540" lon="6.043695">
        <ele>4.296842</ele>
        <time>2026-08-02T20:25:52.328Z</time>
      </trkpt>
      <trkpt lat="52.234039" lon="6.043089">
        <ele>4.038915</ele>
        <time>2026-08-02T20:26:05.285Z</time>
      </trkpt>
      <trkpt lat="52.236085" lon="6.040761">
        <ele>3.569409</ele>
        <time>2026-08-02T20:26:59.014Z</time>
      </trkpt>
      <trkpt lat="52.237926" lon="6.038564">
        <ele>3.372295</ele>
        <time>2026-08-02T20:27:49.254Z</time>
      </trkpt>
      <trkpt lat="52.238368" lon="6.038048">
        <ele>3.336446</ele>
        <time>2026-08-02T20:28:01.238Z</time>
      </trkpt>
      <trkpt lat="52.238621" lon="6.037824">
        <ele>3.337268</ele>
        <time>2026-08-02T20:28:07.527Z</time>
      </trkpt>
      <trkpt lat="52.238849" lon="6.037700">
        <ele>3.338128</ele>
        <time>2026-08-02T20:28:12.799Z</time>
      </trkpt>
      <trkpt lat="52.239672" lon="6.037464">
        <ele>3.341120</ele>
        <time>2026-08-02T20:28:31.483Z</time>
      </trkpt>
      <trkpt lat="52.239816" lon="6.037305">
        <ele>3.341743</ele>
        <time>2026-08-02T20:28:35.458Z</time>
      </trkpt>
      <trkpt lat="52.240623" lon="6.037066">
        <ele>3.390548</ele>
        <time>2026-08-02T20:28:53.893Z</time>
      </trkpt>
      <trkpt lat="52.240786" lon="6.037102">
        <ele>3.404705</ele>
        <time>2026-08-02T20:28:57.626Z</time>
      </trkpt>
      <trkpt lat="52.244051" lon="6.036144">
        <ele>3.613553</ele>
        <time>2026-08-02T20:30:12.655Z</time>
      </trkpt>
      <trkpt lat="52.244243" lon="6.036060">
        <ele>3.596414</ele>
        <time>2026-08-02T20:30:17.009Z</time>
      </trkpt>
      <trkpt lat="52.245353" lon="6.035732">
        <ele>3.499151</ele>
        <time>2026-08-02T20:30:41.347Z</time>
      </trkpt>
      <trkpt lat="52.246519" lon="6.035400">
        <ele>3.306626</ele>
        <time>2026-08-02T20:31:06.753Z</time>
      </trkpt>
      <trkpt lat="52.246712" lon="6.035338">
        <ele>3.274222</ele>
        <time>2026-08-02T20:31:10.984Z</time>
      </trkpt>
      <trkpt lat="52.246769" lon="6.035281">
        <ele>3.263212</ele>
        <time>2026-08-02T20:31:12.414Z</time>
      </trkpt>
      <trkpt lat="52.246810" lon="6.035174">
        <ele>3.250480</ele>
        <time>2026-08-02T20:31:14.073Z</time>
      </trkpt>
      <trkpt lat="52.246882" lon="6.034800">
        <ele>3.210936</ele>
        <time>2026-08-02T20:31:19.270Z</time>
      </trkpt>
      <trkpt lat="52.246925" lon="6.034711">
        <ele>3.200425</ele>
        <time>2026-08-02T20:31:20.784Z</time>
      </trkpt>
      <trkpt lat="52.246976" lon="6.034671">
        <ele>3.204577</ele>
        <time>2026-08-02T20:31:22.018Z</time>
      </trkpt>
      <trkpt lat="52.247032" lon="6.034677">
        <ele>3.208695</ele>
        <time>2026-08-02T20:31:23.265Z</time>
      </trkpt>
      <trkpt lat="52.247651" lon="6.035074">
        <ele>3.257491</ele>
        <time>2026-08-02T20:31:38.276Z</time>
      </trkpt>
      <trkpt lat="52.248135" lon="6.034934">
        <ele>3.293559</ele>
        <time>2026-08-02T20:31:49.587Z</time>
      </trkpt>
      <trkpt lat="52.248844" lon="6.034729">
        <ele>3.316518</ele>
        <time>2026-08-02T20:32:05.889Z</time>
      </trkpt>
      <trkpt lat="52.248135" lon="6.034934">
        <ele>3.258759</ele>
        <time>2026-08-02T20:32:21.623Z</time>
      </trkpt>
      <trkpt lat="52.247651" lon="6.035074">
        <ele>3.219329</ele>
        <time>2026-08-02T20:32:32.183Z</time>
      </trkpt>
      <trkpt lat="52.247032" lon="6.034677">
        <ele>3.186228</ele>
        <time>2026-08-02T20:32:46.772Z</time>
      </trkpt>
      <trkpt lat="52.246976" lon="6.034671">
        <ele>3.185897</ele>
        <time>2026-08-02T20:32:48.035Z</time>
      </trkpt>
      <trkpt lat="52.246925" lon="6.034711">
        <ele>3.185563</ele>
        <time>2026-08-02T20:32:49.294Z</time>
      </trkpt>
      <trkpt lat="52.246882" lon="6.034800">
        <ele>3.185153</ele>
        <time>2026-08-02T20:32:50.860Z</time>
      </trkpt>
      <trkpt lat="52.246810" lon="6.035174">
        <ele>3.183736</ele>
        <time>2026-08-02T20:32:56.285Z</time>
      </trkpt>
      <trkpt lat="52.246769" lon="6.035281">
        <ele>3.183280</ele>
        <time>2026-08-02T20:32:58.057Z</time>
      </trkpt>
      <trkpt lat="52.246712" lon="6.035338">
        <ele>3.182886</ele>
        <time>2026-08-02T20:32:59.582Z</time>
      </trkpt>
      <trkpt lat="52.246519" lon="6.035400">
        <ele>3.181725</ele>
        <time>2026-08-02T20:33:04.053Z</time>
      </trkpt>
      <trkpt lat="52.246253" lon="6.035476">
        <ele>3.180131</ele>
        <time>2026-08-02T20:33:10.084Z</time>
      </trkpt>
      <trkpt lat="52.246519" lon="6.035400">
        <ele>3.178537</ele>
        <time>2026-08-02T20:33:16.049Z</time>
      </trkpt>
      <trkpt lat="52.246712" lon="6.035338">
        <ele>3.177375</ele>
        <time>2026-08-02T20:33:20.360Z</time>
      </trkpt>
      <trkpt lat="52.246769" lon="6.035281">
        <ele>3.183480</ele>
        <time>2026-08-02T20:33:21.805Z</time>
      </trkpt>
      <trkpt lat="52.246810" lon="6.035174">
        <ele>3.195469</ele>
        <time>2026-08-02T20:33:23.480Z</time>
      </trkpt>
      <trkpt lat="52.246882" lon="6.034800">
        <ele>3.232706</ele>
        <time>2026-08-02T20:33:28.728Z</time>
      </trkpt>
      <trkpt lat="52.246925" lon="6.034711">
        <ele>3.243474</ele>
        <time>2026-08-02T20:33:30.253Z</time>
      </trkpt>
      <trkpt lat="52.246976" lon="6.034671">
        <ele>3.252250</ele>
        <time>2026-08-02T20:33:31.492Z</time>
      </trkpt>
      <trkpt lat="52.247032" lon="6.034677">
        <ele>3.260956</ele>
        <time>2026-08-02T20:33:32.743Z</time>
      </trkpt>
      <trkpt lat="52.247651" lon="6.035074">
        <ele>3.364118</ele>
        <time>2026-08-02T20:33:47.756Z</time>
      </trkpt>
      <trkpt lat="52.248135" lon="6.034934">
        <ele>3.440368</ele>
        <time>2026-08-02T20:33:59.302Z</time>
      </trkpt>
      <trkpt lat="52.248844" lon="6.034729">
        <ele>3.674221</ele>
        <time>2026-08-02T20:34:16.826Z</time>
      </trkpt>
      <trkpt lat="52.249145" lon="6.034641">
        <ele>3.782127</ele>
        <time>2026-08-02T20:34:24.223Z</time>
      </trkpt>
      <trkpt lat="52.249276" lon="6.034663">
        <ele>3.828599</ele>
        <time>2026-08-02T20:34:27.368Z</time>
      </trkpt>
      <trkpt lat="52.249290" lon="6.034761">
        <ele>3.850340</ele>
        <time>2026-08-02T20:34:28.821Z</time>
      </trkpt>
      <trkpt lat="52.249325" lon="6.034955">
        <ele>3.894035</ele>
        <time>2026-08-02T20:34:31.752Z</time>
      </trkpt>
      <trkpt lat="52.249339" lon="6.034991">
        <ele>3.903249</ele>
        <time>2026-08-02T20:34:32.359Z</time>
      </trkpt>
      <trkpt lat="52.249402" lon="6.035072">
        <ele>3.931542</ele>
        <time>2026-08-02T20:34:34.250Z</time>
      </trkpt>
      <trkpt lat="52.249739" lon="6.035307">
        <ele>4.060848</ele>
        <time>2026-08-02T20:34:42.787Z</time>
      </trkpt>
      <trkpt lat="52.250398" lon="6.035886">
        <ele>4.186756</ele>
        <time>2026-08-02T20:34:59.893Z</time>
      </trkpt>
      <trkpt lat="52.251491" lon="6.036734">
        <ele>4.350798</ele>
        <time>2026-08-02T20:35:27.449Z</time>
      </trkpt>
      <trkpt lat="52.250079" lon="6.041777">
        <ele>4.186359</ele>
        <time>2026-08-02T20:36:42.534Z</time>
      </trkpt>
      <trkpt lat="52.249795" lon="6.042753">
        <ele>4.048160</ele>
        <time>2026-08-02T20:36:56.286Z</time>
      </trkpt>
      <trkpt lat="52.249608" lon="6.043514">
        <ele>3.929874</ele>
        <time>2026-08-02T20:37:06.618Z</time>
      </trkpt>
      <trkpt lat="52.249554" lon="6.043984">
        <ele>3.860892</ele>
        <time>2026-08-02T20:37:12.912Z</time>
      </trkpt>
      <trkpt lat="52.249510" lon="6.045092">
        <ele>3.773844</ele>
        <time>2026-08-02T20:37:28.059Z</time>
      </trkpt>
      <trkpt lat="52.249455" lon="6.045791">
        <ele>3.822766</ele>
        <time>2026-08-02T20:37:38.013Z</time>
      </trkpt>
      <trkpt lat="52.249320" lon="6.046784">
        <ele>3.893376</ele>
        <time>2026-08-02T20:37:52.543Z</time>
      </trkpt>
      <trkpt lat="52.248844" lon="6.049409">
        <ele>4.064117</ele>
        <time>2026-08-02T20:38:29.634Z</time>
      </trkpt>
      <trkpt lat="52.248243" lon="6.052664">
        <ele>4.385668</ele>
        <time>2026-08-02T20:39:18.598Z</time>
      </trkpt>
      <trkpt lat="52.248072" lon="6.053230">
        <ele>4.449126</ele>
        <time>2026-08-02T20:39:26.951Z</time>
      </trkpt>
      <trkpt lat="52.247786" lon="6.053942">
        <ele>4.252867</ele>
        <time>2026-08-02T20:39:37.695Z</time>
      </trkpt>
      <trkpt lat="52.248476" lon="6.056741">
        <ele>3.803814</ele>
        <time>2026-08-02T20:40:16.065Z</time>
      </trkpt>
      <trkpt lat="52.248644" lon="6.057427">
        <ele>3.825044</ele>
        <time>2026-08-02T20:40:26.772Z</time>
      </trkpt>
      <trkpt lat="52.248791" lon="6.058022">
        <ele>3.843480</ele>
        <time>2026-08-02T20:40:36.287Z</time>
      </trkpt>
      <trkpt lat="52.249486" lon="6.060857">
        <ele>3.821019</ele>
        <time>2026-08-02T20:41:18.042Z</time>
      </trkpt>
      <trkpt lat="52.252127" lon="6.059544">
        <ele>3.454917</ele>
        <time>2026-08-02T20:42:16.982Z</time>
      </trkpt>
      <trkpt lat="52.252215" lon="6.059613">
        <ele>3.456008</ele>
        <time>2026-08-02T20:42:19.165Z</time>
      </trkpt>
      <trkpt lat="52.252243" lon="6.059688">
        <ele>3.456609</ele>
        <time>2026-08-02T20:42:20.379Z</time>
      </trkpt>
      <trkpt lat="52.252630" lon="6.062473">
        <ele>3.404480</ele>
        <time>2026-08-02T20:43:00.736Z</time>
      </trkpt>
      <trkpt lat="52.254061" lon="6.072662">
        <ele>2.907402</ele>
        <time>2026-08-02T20:45:19.837Z</time>
      </trkpt>
      <trkpt lat="52.254113" lon="6.073098">
        <ele>2.984306</ele>
        <time>2026-08-02T20:45:26.201Z</time>
      </trkpt>
      <trkpt lat="52.254120" lon="6.073389">
        <ele>3.043170</ele>
        <time>2026-08-02T20:45:30.441Z</time>
      </trkpt>
      <trkpt lat="52.253999" lon="6.074272">
        <ele>3.226066</ele>
        <time>2026-08-02T20:45:43.727Z</time>
      </trkpt>
      <trkpt lat="52.254002" lon="6.075044">
        <ele>3.382111</ele>
        <time>2026-08-02T20:45:55.056Z</time>
      </trkpt>
      <trkpt lat="52.254048" lon="6.076016">
        <ele>3.558027</ele>
        <time>2026-08-02T20:46:09.220Z</time>
      </trkpt>
      <trkpt lat="52.254097" lon="6.076700">
        <ele>3.660433</ele>
        <time>2026-08-02T20:46:19.149Z</time>
      </trkpt>
      <trkpt lat="52.254428" lon="6.081380">
        <ele>4.221453</ele>
        <time>2026-08-02T20:47:25.409Z</time>
      </trkpt>
      <trkpt lat="52.254426" lon="6.081553">
        <ele>4.233221</ele>
        <time>2026-08-02T20:47:27.743Z</time>
      </trkpt>
      <trkpt lat="52.254393" lon="6.081729">
        <ele>4.240584</ele>
        <time>2026-08-02T20:47:30.225Z</time>
      </trkpt>
      <trkpt lat="52.254098" lon="6.082076">
        <ele>4.264341</ele>
        <time>2026-08-02T20:47:38.225Z</time>
      </trkpt>
      <trkpt lat="52.254067" lon="6.082331">
        <ele>4.274742</ele>
        <time>2026-08-02T20:47:41.733Z</time>
      </trkpt>
      <trkpt lat="52.254225" lon="6.084496">
        <ele>4.382703</ele>
        <time>2026-08-02T20:48:11.917Z</time>
      </trkpt>
      <trkpt lat="52.253873" lon="6.084555">
        <ele>4.438035</ele>
        <time>2026-08-02T20:48:19.940Z</time>
      </trkpt>
      <trkpt lat="52.253461" lon="6.084549">
        <ele>4.502463</ele>
        <time>2026-08-02T20:48:29.269Z</time>
      </trkpt>
      <trkpt lat="52.252930" lon="6.084430">
        <ele>4.586275</ele>
        <time>2026-08-02T20:48:41.585Z</time>
      </trkpt>
      <trkpt lat="52.252177" lon="6.084201">
        <ele>4.756703</ele>
        <time>2026-08-02T20:48:59.722Z</time>
      </trkpt>
      <trkpt lat="52.251912" lon="6.084156">
        <ele>4.825524</ele>
        <time>2026-08-02T20:49:06.016Z</time>
      </trkpt>
      <trkpt lat="52.251709" lon="6.084176">
        <ele>4.878056</ele>
        <time>2026-08-02T20:49:10.853Z</time>
      </trkpt>
      <trkpt lat="52.251638" lon="6.084189">
        <ele>4.896511</ele>
        <time>2026-08-02T20:49:12.569Z</time>
      </trkpt>
      <trkpt lat="52.250049" lon="6.084829">
        <ele>5.210722</ele>
        <time>2026-08-02T20:49:49.498Z</time>
      </trkpt>
      <trkpt lat="52.249851" lon="6.084849">
        <ele>5.237389</ele>
        <time>2026-08-02T20:49:53.921Z</time>
      </trkpt>
      <trkpt lat="52.249688" lon="6.084813">
        <ele>5.259500</ele>
        <time>2026-08-02T20:49:57.646Z</time>
      </trkpt>
      <trkpt lat="52.248750" lon="6.084324">
        <ele>5.485714</ele>
        <time>2026-08-02T20:50:20.437Z</time>
      </trkpt>
      <trkpt lat="52.248311" lon="6.084104">
        <ele>5.648861</ele>
        <time>2026-08-02T20:50:31.477Z</time>
      </trkpt>
      <trkpt lat="52.247886" lon="6.087633">
        <ele>6.181984</ele>
        <time>2026-08-02T20:51:24.082Z</time>
      </trkpt>
      <trkpt lat="52.247871" lon="6.087747">
        <ele>6.193529</ele>
        <time>2026-08-02T20:51:25.660Z</time>
      </trkpt>
      <trkpt lat="52.247146" lon="6.093216">
        <ele>4.994264</ele>
        <time>2026-08-02T20:52:36.513Z</time>
      </trkpt>
      <trkpt lat="52.247106" lon="6.093305">
        <ele>4.964342</ele>
        <time>2026-08-02T20:52:37.927Z</time>
      </trkpt>
      <trkpt lat="52.247014" lon="6.093337">
        <ele>4.922704</ele>
        <time>2026-08-02T20:52:39.877Z</time>
      </trkpt>
      <trkpt lat="52.246585" lon="6.093195">
        <ele>4.728943</ele>
        <time>2026-08-02T20:52:48.996Z</time>
      </trkpt>
      <trkpt lat="52.246284" lon="6.093140">
        <ele>4.627096</ele>
        <time>2026-08-02T20:52:55.334Z</time>
      </trkpt>
      <trkpt lat="52.246035" lon="6.093158">
        <ele>4.544345</ele>
        <time>2026-08-02T20:53:00.591Z</time>
      </trkpt>
      <trkpt lat="52.245946" lon="6.093235">
        <ele>4.510907</ele>
        <time>2026-08-02T20:53:02.734Z</time>
      </trkpt>
      <trkpt lat="52.245895" lon="6.093533">
        <ele>4.448008</ele>
        <time>2026-08-02T20:53:06.733Z</time>
      </trkpt>
      <trkpt lat="52.245837" lon="6.095609">
        <ele>4.139942</ele>
        <time>2026-08-02T20:53:33.617Z</time>
      </trkpt>
      <trkpt lat="52.245686" lon="6.095677">
        <ele>4.146795</ele>
        <time>2026-08-02T20:53:36.993Z</time>
      </trkpt>
      <trkpt lat="52.245507" lon="6.095750">
        <ele>4.154867</ele>
        <time>2026-08-02T20:53:40.997Z</time>
      </trkpt>
      <trkpt lat="52.244842" lon="6.096021">
        <ele>4.184853</ele>
        <time>2026-08-02T20:53:56.274Z</time>
      </trkpt>
      <trkpt lat="52.244520" lon="6.096200">
        <ele>4.199735</ele>
        <time>2026-08-02T20:54:04.181Z</time>
      </trkpt>
      <trkpt lat="52.244190" lon="6.096520">
        <ele>4.303844</ele>
        <time>2026-08-02T20:54:13.414Z</time>
      </trkpt>
      <trkpt lat="52.243597" lon="6.097273">
        <ele>4.592710</ele>
        <time>2026-08-02T20:54:31.633Z</time>
      </trkpt>
      <trkpt lat="52.243471" lon="6.097434">
        <ele>4.654234</ele>
        <time>2026-08-02T20:54:35.456Z</time>
      </trkpt>
      <trkpt lat="52.243023" lon="6.098159">
        <ele>4.896775</ele>
        <time>2026-08-02T20:54:50.949Z</time>
      </trkpt>
      <trkpt lat="52.242612" lon="6.098918">
        <ele>5.151288</ele>
        <time>2026-08-02T20:55:06.183Z</time>
      </trkpt>
      <trkpt lat="52.242240" lon="6.099556">
        <ele>5.372599</ele>
        <time>2026-08-02T20:55:19.513Z</time>
      </trkpt>
      <trkpt lat="52.242115" lon="6.099728">
        <ele>5.439657</ele>
        <time>2026-08-02T20:55:23.606Z</time>
      </trkpt>
      <trkpt lat="52.241115" lon="6.100800">
        <ele>5.846200</ele>
        <time>2026-08-02T20:55:53.616Z</time>
      </trkpt>
      <trkpt lat="52.241089" lon="6.100820">
        <ele>5.854630</ele>
        <time>2026-08-02T20:55:54.339Z</time>
      </trkpt>
      <trkpt lat="52.240847" lon="6.099619">
        <ele>6.081744</ele>
        <time>2026-08-02T20:56:12.360Z</time>
      </trkpt>
      <trkpt lat="52.240836" lon="6.099567">
        <ele>6.091626</ele>
        <time>2026-08-02T20:56:13.122Z</time>
      </trkpt>
      <trkpt lat="52.240724" lon="6.099029">
        <ele>6.161296</ele>
        <time>2026-08-02T20:56:20.904Z</time>
      </trkpt>
      <trkpt lat="52.240714" lon="6.098986">
        <ele>6.160966</ele>
        <time>2026-08-02T20:56:21.523Z</time>
      </trkpt>
      <trkpt lat="52.240656" lon="6.099005">
        <ele>6.160273</ele>
        <time>2026-08-02T20:56:22.812Z</time>
      </trkpt>
      <trkpt lat="52.240611" lon="6.099050">
        <ele>6.159654</ele>
        <time>2026-08-02T20:56:23.964Z</time>
      </trkpt>
      <trkpt lat="52.240627" lon="6.099123">
        <ele>6.159098</ele>
        <time>2026-08-02T20:56:25.000Z</time>
      </trkpt>
      <trkpt lat="52.240592" lon="6.099269">
        <ele>6.157972</ele>
        <time>2026-08-02T20:56:27.079Z</time>
      </trkpt>
      <trkpt lat="52.240498" lon="6.099371">
        <ele>6.156649</ele>
        <time>2026-08-02T20:56:29.505Z</time>
      </trkpt>
      <trkpt lat="52.240430" lon="6.099527">
        <ele>6.155275</ele>
        <time>2026-08-02T20:56:32.066Z</time>
      </trkpt>
      <trkpt lat="52.240244" lon="6.099709">
        <ele>6.152733</ele>
        <time>2026-08-02T20:56:36.794Z</time>
      </trkpt>
      <trkpt lat="52.239612" lon="6.100370">
        <ele>6.143936</ele>
        <time>2026-08-02T20:56:53.185Z</time>
      </trkpt>
      <trkpt lat="52.239421" lon="6.100583">
        <ele>6.150825</ele>
        <time>2026-08-02T20:56:58.281Z</time>
      </trkpt>
      <trkpt lat="52.238693" lon="6.101415">
        <ele>6.569233</ele>
        <time>2026-08-02T20:57:19.410Z</time>
      </trkpt>
      <trkpt lat="52.238411" lon="6.101697">
        <ele>6.724940</ele>
        <time>2026-08-02T20:57:27.627Z</time>
      </trkpt>
      <trkpt lat="52.238290" lon="6.101814">
        <ele>6.791156</ele>
        <time>2026-08-02T20:57:31.155Z</time>
      </trkpt>
      <trkpt lat="52.237699" lon="6.102373">
        <ele>7.040639</ele>
        <time>2026-08-02T20:57:53.096Z</time>
      </trkpt>
      <trkpt lat="52.237602" lon="6.102425">
        <ele>7.060834</ele>
        <time>2026-08-02T20:57:56.391Z</time>
      </trkpt>
      <trkpt lat="52.237567" lon="6.102524">
        <ele>7.074682</ele>
        <time>2026-08-02T20:57:58.650Z</time>
      </trkpt>
      <trkpt lat="52.237207" lon="6.102959">
        <ele>7.163270</ele>
        <time>2026-08-02T20:58:12.635Z</time>
      </trkpt>
      <trkpt lat="52.237022" lon="6.103353">
        <ele>7.223413</ele>
        <time>2026-08-02T20:58:21.631Z</time>
      </trkpt>
      <trkpt lat="52.237042" lon="6.103442">
        <ele>7.234897</ele>
        <time>2026-08-02T20:58:23.370Z</time>
      </trkpt>
      <trkpt lat="52.236619" lon="6.103696">
        <ele>7.324049</ele>
        <time>2026-08-02T20:58:36.046Z</time>
      </trkpt>
      <trkpt lat="52.236049" lon="6.104053">
        <ele>7.059923</ele>
        <time>2026-08-02T20:58:53.023Z</time>
      </trkpt>
      <trkpt lat="52.236010" lon="6.104076">
        <ele>7.036751</ele>
        <time>2026-08-02T20:58:54.144Z</time>
      </trkpt>
      <trkpt lat="52.235976" lon="6.104156">
        <ele>7.003426</ele>
        <time>2026-08-02T20:58:55.347Z</time>
      </trkpt>
      <trkpt lat="52.235740" lon="6.104401">
        <ele>6.847147</ele>
        <time>2026-08-02T20:59:00.856Z</time>
      </trkpt>
      <trkpt lat="52.235438" lon="6.104700">
        <ele>6.649784</ele>
        <time>2026-08-02T20:59:07.705Z</time>
      </trkpt>
      <trkpt lat="52.235391" lon="6.104739">
        <ele>6.620323</ele>
        <time>2026-08-02T20:59:08.725Z</time>
      </trkpt>
      <trkpt lat="52.235280" lon="6.104824">
        <ele>6.551811</ele>
        <time>2026-08-02T20:59:11.151Z</time>
      </trkpt>
      <trkpt lat="52.234964" lon="6.105026">
        <ele>6.362173</ele>
        <time>2026-08-02T20:59:18.028Z</time>
      </trkpt>
      <trkpt lat="52.234627" lon="6.105159">
        <ele>6.309816</ele>
        <time>2026-08-02T20:59:25.620Z</time>
      </trkpt>
      <trkpt lat="52.234125" lon="6.105329">
        <ele>6.260705</ele>
        <time>2026-08-02T20:59:37.086Z</time>
      </trkpt>
      <trkpt lat="52.233950" lon="6.105390">
        <ele>6.243564</ele>
        <time>2026-08-02T20:59:40.968Z</time>
      </trkpt>
      <trkpt lat="52.233697" lon="6.105476">
        <ele>6.218810</ele>
        <time>2026-08-02T20:59:46.660Z</time>
      </trkpt>
      <trkpt lat="52.233564" lon="6.105522">
        <ele>6.205787</ele>
        <time>2026-08-02T20:59:49.725Z</time>
      </trkpt>
      <trkpt lat="52.233345" lon="6.105603">
        <ele>6.184277</ele>
        <time>2026-08-02T20:59:54.886Z</time>
      </trkpt>
      <trkpt lat="52.233296" lon="6.105628">
        <ele>6.179360</ele>
        <time>2026-08-02T20:59:56.057Z</time>
      </trkpt>
      <trkpt lat="52.233252" lon="6.105544">
        <ele>6.172875</ele>
        <time>2026-08-02T20:59:57.594Z</time>
      </trkpt>
      <trkpt lat="52.233185" lon="6.105536">
        <ele>6.166389</ele>
        <time>2026-08-02T20:59:59.150Z</time>
      </trkpt>
      <trkpt lat="52.233135" lon="6.105607">
        <ele>6.159073</ele>
        <time>2026-08-02T21:00:00.630Z</time>
      </trkpt>
      <trkpt lat="52.233129" lon="6.105715">
        <ele>6.151740</ele>
        <time>2026-08-02T21:00:02.147Z</time>
      </trkpt>
      <trkpt lat="52.233081" lon="6.105736">
        <ele>6.146254</ele>
        <time>2026-08-02T21:00:03.263Z</time>
      </trkpt>
      <trkpt lat="52.233059" lon="6.105745">
        <ele>6.143750</ele>
        <time>2026-08-02T21:00:03.760Z</time>
      </trkpt>
      <trkpt lat="52.232939" lon="6.105769">
        <ele>6.130402</ele>
        <time>2026-08-02T21:00:06.447Z</time>
      </trkpt>
      <trkpt lat="52.232537" lon="6.105966">
        <ele>6.084063</ele>
        <time>2026-08-02T21:00:15.479Z</time>
      </trkpt>
      <trkpt lat="52.232004" lon="6.106236">
        <ele>6.022450</ele>
        <time>2026-08-02T21:00:27.155Z</time>
      </trkpt>
      <trkpt lat="52.231890" lon="6.106291">
        <ele>6.009325</ele>
        <time>2026-08-02T21:00:29.733Z</time>
      </trkpt>
      <trkpt lat="52.231234" lon="6.106624">
        <ele>5.945305</ele>
        <time>2026-08-02T21:00:45.170Z</time>
      </trkpt>
      <trkpt lat="52.231049" lon="6.106719">
        <ele>5.931189</ele>
        <time>2026-08-02T21:00:49.529Z</time>
      </trkpt>
      <trkpt lat="52.231020" lon="6.106623">
        <ele>5.926416</ele>
        <time>2026-08-02T21:00:51.008Z</time>
      </trkpt>
      <trkpt lat="52.231006" lon="6.106575">
        <ele>5.924046</ele>
        <time>2026-08-02T21:00:51.742Z</time>
      </trkpt>
      <trkpt lat="52.230758" lon="6.105924">
        <ele>5.889866</ele>
        <time>2026-08-02T21:01:02.314Z</time>
      </trkpt>
      <trkpt lat="52.230436" lon="6.105145">
        <ele>5.847966</ele>
        <time>2026-08-02T21:01:14.825Z</time>
      </trkpt>
      <trkpt lat="52.230258" lon="6.104779">
        <ele>5.799085</ele>
        <time>2026-08-02T21:01:20.874Z</time>
      </trkpt>
      <trkpt lat="52.230237" lon="6.104728">
        <ele>5.788764</ele>
        <time>2026-08-02T21:01:21.674Z</time>
      </trkpt>
      <trkpt lat="52.230144" lon="6.104501">
        <ele>5.742897</ele>
        <time>2026-08-02T21:01:25.167Z</time>
      </trkpt>
      <trkpt lat="52.229842" lon="6.103765">
        <ele>5.594109</ele>
        <time>2026-08-02T21:01:36.399Z</time>
      </trkpt>
      <trkpt lat="52.229801" lon="6.103666">
        <ele>5.574038</ele>
        <time>2026-08-02T21:01:37.933Z</time>
      </trkpt>
      <trkpt lat="52.229797" lon="6.103670">
        <ele>5.572752</ele>
        <time>2026-08-02T21:01:38.039Z</time>
      </trkpt>
      <trkpt lat="52.229609" lon="6.103876">
        <ele>5.510666</ele>
        <time>2026-08-02T21:01:42.816Z</time>
      </trkpt>
      <trkpt lat="52.229534" lon="6.103959">
        <ele>5.485821</ele>
        <time>2026-08-02T21:01:44.729Z</time>
      </trkpt>
      <trkpt lat="52.229527" lon="6.103967">
        <ele>5.483478</ele>
        <time>2026-08-02T21:01:44.922Z</time>
      </trkpt>
      <trkpt lat="52.229416" lon="6.104090">
        <ele>5.446692</ele>
        <time>2026-08-02T21:01:47.763Z</time>
      </trkpt>
      <trkpt lat="52.229268" lon="6.104251">
        <ele>5.397926</ele>
        <time>2026-08-02T21:01:51.591Z</time>
      </trkpt>
      <trkpt lat="52.229253" lon="6.104267">
        <ele>5.393013</ele>
        <time>2026-08-02T21:01:51.973Z</time>
      </trkpt>
      <trkpt lat="52.229092" lon="6.104318">
        <ele>5.348042</ele>
        <time>2026-08-02T21:01:55.559Z</time>
      </trkpt>
      <trkpt lat="52.229070" lon="6.104320">
        <ele>5.343547</ele>
        <time>2026-08-02T21:01:56.034Z</time>
      </trkpt>
      <trkpt lat="52.229040" lon="6.104324">
        <ele>5.341489</ele>
        <time>2026-08-02T21:01:56.687Z</time>
      </trkpt>
      <trkpt lat="52.228904" lon="6.104340">
        <ele>5.332170</ele>
        <time>2026-08-02T21:01:59.699Z</time>
      </trkpt>
      <trkpt lat="52.228752" lon="6.104358">
        <ele>5.321754</ele>
        <time>2026-08-02T21:02:03.124Z</time>
      </trkpt>
      <trkpt lat="52.228671" lon="6.104368">
        <ele>5.316202</ele>
        <time>2026-08-02T21:02:04.937Z</time>
      </trkpt>
      <trkpt lat="52.228557" lon="6.104380">
        <ele>5.308395</ele>
        <time>2026-08-02T21:02:07.469Z</time>
      </trkpt>
      <trkpt lat="52.228490" lon="6.104387">
        <ele>5.303806</ele>
        <time>2026-08-02T21:02:08.981Z</time>
      </trkpt>
      <trkpt lat="52.228416" lon="6.104395">
        <ele>5.298738</ele>
        <time>2026-08-02T21:02:10.609Z</time>
      </trkpt>
      <trkpt lat="52.228260" lon="6.104411">
        <ele>5.288054</ele>
        <time>2026-08-02T21:02:14.094Z</time>
      </trkpt>
      <trkpt lat="52.228101" lon="6.104426">
        <ele>5.277169</ele>
        <time>2026-08-02T21:02:17.607Z</time>
      </trkpt>
      <trkpt lat="52.227967" lon="6.104421">
        <ele>5.268008</ele>
        <time>2026-08-02T21:02:20.585Z</time>
      </trkpt>
      <trkpt lat="52.227926" lon="6.104357">
        <ele>5.264131</ele>
        <time>2026-08-02T21:02:21.843Z</time>
      </trkpt>
      <trkpt lat="52.227907" lon="6.104026">
        <ele>5.250214</ele>
        <time>2026-08-02T21:02:26.343Z</time>
      </trkpt>
      <trkpt lat="52.227888" lon="6.103472">
        <ele>5.226985</ele>
        <time>2026-08-02T21:02:33.765Z</time>
      </trkpt>
      <trkpt lat="52.227886" lon="6.103394">
        <ele>5.223717</ele>
        <time>2026-08-02T21:02:34.809Z</time>
      </trkpt>
      <trkpt lat="52.227343" lon="6.103446">
        <ele>5.124029</ele>
        <time>2026-08-02T21:02:46.473Z</time>
      </trkpt>
      <trkpt lat="52.227286" lon="6.103452">
        <ele>5.113070</ele>
        <time>2026-08-02T21:02:47.698Z</time>
      </trkpt>
      <trkpt lat="52.227147" lon="6.103468">
        <ele>5.086333</ele>
        <time>2026-08-02T21:02:50.654Z</time>
      </trkpt>
      <trkpt lat="52.226928" lon="6.103494">
        <ele>5.044203</ele>
        <time>2026-08-02T21:02:55.318Z</time>
      </trkpt>
      <trkpt lat="52.226879" lon="6.103500">
        <ele>5.034775</ele>
        <time>2026-08-02T21:02:56.377Z</time>
      </trkpt>
      <trkpt lat="52.226774" lon="6.103411">
        <ele>5.012075</ele>
        <time>2026-08-02T21:02:58.924Z</time>
      </trkpt>
      <trkpt lat="52.226707" lon="6.103410">
        <ele>4.999219</ele>
        <time>2026-08-02T21:03:00.353Z</time>
      </trkpt>
      <trkpt lat="52.226389" lon="6.103418">
        <ele>4.938198</ele>
        <time>2026-08-02T21:03:07.208Z</time>
      </trkpt>
      <trkpt lat="52.226276" lon="6.103173">
        <ele>4.902153</ele>
        <time>2026-08-02T21:03:11.260Z</time>
      </trkpt>
      <trkpt lat="52.226239" lon="6.103148">
        <ele>4.894470</ele>
        <time>2026-08-02T21:03:12.143Z</time>
      </trkpt>
      <trkpt lat="52.226218" lon="6.103149">
        <ele>4.890439</ele>
        <time>2026-08-02T21:03:12.620Z</time>
      </trkpt>
      <trkpt lat="52.226152" lon="6.103157">
        <ele>4.877741</ele>
        <time>2026-08-02T21:03:14.112Z</time>
      </trkpt>
      <trkpt lat="52.226134" lon="6.103160">
        <ele>4.876025</ele>
        <time>2026-08-02T21:03:14.518Z</time>
      </trkpt>
      <trkpt lat="52.226108" lon="6.103178">
        <ele>4.876025</ele>
        <time>2026-08-02T21:03:15.136Z</time>
      </trkpt>
      <trkpt lat="52.225951" lon="6.103446">
        <ele>4.876025</ele>
        <time>2026-08-02T21:03:20.079Z</time>
      </trkpt>
      <trkpt lat="52.225916" lon="6.103428">
        <ele>4.876025</ele>
        <time>2026-08-02T21:03:21.112Z</time>
      </trkpt>
      <trkpt lat="52.225671" lon="6.103301">
        <ele>4.876025</ele>
        <time>2026-08-02T21:03:28.474Z</time>
      </trkpt>
      <trkpt lat="52.225524" lon="6.103225">
        <ele>4.876025</ele>
        <time>2026-08-02T21:03:32.894Z</time>
      </trkpt>
      <trkpt lat="52.225359" lon="6.103140">
        <ele>4.876025</ele>
        <time>2026-08-02T21:03:37.872Z</time>
      </trkpt>
      <trkpt lat="52.225047" lon="6.102979">
        <ele>4.876025</ele>
        <time>2026-08-02T21:03:47.293Z</time>
      </trkpt>
      <trkpt lat="52.225299" lon="6.101679">
        <ele>4.876025</ele>
        <time>2026-08-02T21:04:11.383Z</time>
      </trkpt>
      <trkpt lat="52.225263" lon="6.101568">
        <ele>4.876025</ele>
        <time>2026-08-02T21:04:13.613Z</time>
      </trkpt>
      <trkpt lat="52.225190" lon="6.101529">
        <ele>4.876025</ele>
        <time>2026-08-02T21:04:15.800Z</time>
      </trkpt>
      <trkpt lat="52.225172" lon="6.101623">
        <ele>4.876025</ele>
        <time>2026-08-02T21:04:17.539Z</time>
      </trkpt>
    </trkseg>
  </trk>
</gpx>